Aeroporto :
LOGIN :

Iscrizione | Disclaimer

   EN    FR    IT 

 










Sommario :    VFR   VFR Marginale   IFR   IFR Intensivo   IFR Molto Intensivo
Visibilità : 
Base nubi : 
>= 8 km
>= 3000ft
5 / 8 km
1000 / 3000 ft
1500m / 5 km
500 / 1000 ft
800 / 1500m
200 / 500 ft
< 800m
< 200 ft
Simboli :   Temporali  Nebbia  Neve Forte  Precipitazioni Forti  Vento > 20 kt
SIGMETs :   Varie  Temporali  Ghiacco  Turbolenza  Onda orograficha  Ceneri Vulcaniche






- Altitudine del aeroporto : 1090 ft
- Codice IATA : CFE


LFLC - Clermont-Ferrand Auvergne

ULTIMO METAR :
  • 180400Z AUTO 14006KT CAVOK 01/M02 Q1029 NOSIG

METARs OBSOLETI :
  • 180330Z AUTO 12003KT 070V150 CAVOK 01/M02 Q1029 NOSIG
  • 180300Z AUTO VRB01KT CAVOK 05/M00 Q1029 NOSIG
  • 180230Z AUTO 26005KT 230V290 CAVOK 05/M00 Q1029 NOSIG
  • 180200Z AUTO 21004KT 180V250 CAVOK 04/M00 Q1029 NOSIG
  • 180130Z AUTO 17006KT CAVOK 05/M00 Q1029 NOSIG

TAF TAF LFLC
Valido dal 18 a 03 ore il 19 a 03 ore UTC


180200Z 1803/1903 18005KT 9999 BKN040
BECMG 1813/1815 36005KT
BECMG 1901/1903 BKN008
ATIS : +33 4 73 62 74 38



MetMap, La meteo Aeronautica in un colpo d'occhio ! - Copyright ORBIFLY Dicembre 2007 - Disclaimer

ORBIFLY MET'MAP TEAM :

Programmazione e sviluppo : Alexandra Zaïnal
Concezione : Baudouin d'Aumeries
Aiuto per la programmazione : Marc-Olivier Méhu
Supporto tecnico e logistico : Manuel Goepfert
Aiuto per la traduzione : Arnaldo La Scala

Contatto : metmap@orbifly.com




FONTI E CREDITI :

   NOAA